createdAt,value
2022-12-06T00:00:50.046Z,4.51
2022-12-06T00:03:30.205Z,4.51
2022-12-06T00:06:19.061Z,4.50
2022-12-06T00:09:00.087Z,4.54
2022-12-06T00:11:54.066Z,4.55
2022-12-06T00:14:41.093Z,4.55
2022-12-06T00:17:21.077Z,4.55
2022-12-06T00:20:15.054Z,4.56
2022-12-06T00:23:09.085Z,4.54
2022-12-06T00:26:03.091Z,4.53
2022-12-06T00:28:57.076Z,4.49
2022-12-06T00:31:44.141Z,4.47
2022-12-06T00:34:18.157Z,4.43
2022-12-06T00:37:05.074Z,4.43
2022-12-06T00:39:38.132Z,4.41
2022-12-06T00:42:25.096Z,4.40
2022-12-06T00:45:05.200Z,4.38
2022-12-06T00:47:59.094Z,4.38
2022-12-06T00:50:46.078Z,4.36
2022-12-06T00:53:19.115Z,4.36
2022-12-06T00:56:06.086Z,4.35
2022-12-06T00:58:40.113Z,4.36
2022-12-06T01:01:29.254Z,4.38
2022-12-06T01:04:20.084Z,4.39
2022-12-06T01:07:14.109Z,4.39
2022-12-06T01:10:01.442Z,4.38
2022-12-06T01:12:35.119Z,4.39
2022-12-06T01:15:22.053Z,4.41
2022-12-06T01:17:55.122Z,4.41
2022-12-06T01:20:42.080Z,4.44
2022-12-06T01:23:15.115Z,4.44
2022-12-06T01:26:02.048Z,4.46
2022-12-06T01:28:45.056Z,4.47
2022-12-06T01:31:37.726Z,4.48
2022-12-06T01:34:13.132Z,4.48
2022-12-06T01:37:00.078Z,4.48
2022-12-06T01:39:40.087Z,4.48
2022-12-06T01:42:27.050Z,4.47
2022-12-06T01:45:09.082Z,4.48
2022-12-06T01:48:03.070Z,4.49
2022-12-06T01:50:50.049Z,4.50
2022-12-06T01:53:25.673Z,4.52
2022-12-06T01:56:16.064Z,4.53
2022-12-06T01:58:52.181Z,4.56
2022-12-06T02:01:40.145Z,4.57
2022-12-06T02:04:21.073Z,4.58
2022-12-06T02:07:16.072Z,4.59
2022-12-06T02:10:04.105Z,4.58
2022-12-06T02:12:37.172Z,4.59
2022-12-06T02:15:24.068Z,4.59
2022-12-06T02:18:10.533Z,4.60
2022-12-06T02:21:14.100Z,4.56
2022-12-06T02:24:08.173Z,4.57
2022-12-06T02:27:08.099Z,4.56
2022-12-06T02:29:56.172Z,4.56
2022-12-06T02:32:56.083Z,4.56
2022-12-06T02:35:52.076Z,4.57
2022-12-06T02:38:42.199Z,4.60
2022-12-06T02:41:31.078Z,4.63
2022-12-06T02:44:14.162Z,4.64
2022-12-06T02:47:04.093Z,4.66
2022-12-06T02:49:44.835Z,4.68
2022-12-06T02:52:34.107Z,4.68
2022-12-06T02:55:09.200Z,4.70
2022-12-06T02:57:58.114Z,4.71
2022-12-06T03:00:46.189Z,4.73
2022-12-06T03:03:58.107Z,4.73
2022-12-06T03:06:43.199Z,4.73
2022-12-06T03:09:51.103Z,4.74
2022-12-06T03:12:37.100Z,4.75
2022-12-06T03:15:51.137Z,4.76
2022-12-06T03:18:56.112Z,4.76
2022-12-06T03:21:39.087Z,4.77
2022-12-06T03:24:36.115Z,4.76
2022-12-06T03:27:33.102Z,4.77
2022-12-06T03:30:21.171Z,4.78
2022-12-06T03:32:57.191Z,4.78
2022-12-06T03:35:45.086Z,4.80
2022-12-06T03:38:26.216Z,4.80
2022-12-06T03:41:15.114Z,4.80
2022-12-06T03:43:48.324Z,4.80
2022-12-06T03:46:41.160Z,4.82
2022-12-06T03:49:27.120Z,4.83
2022-12-06T03:52:23.116Z,4.85
2022-12-06T03:55:10.114Z,4.87
2022-12-06T03:57:43.213Z,4.86
2022-12-06T04:00:30.120Z,4.87
2022-12-06T04:03:03.248Z,4.85
2022-12-06T04:05:50.133Z,4.86
2022-12-06T04:08:23.259Z,4.86
2022-12-06T04:11:10.125Z,4.87
2022-12-06T04:13:51.219Z,4.88
2022-12-06T04:16:56.128Z,4.88
2022-12-06T04:19:29.215Z,4.86
2022-12-06T04:22:34.144Z,4.87
2022-12-06T04:25:07.224Z,4.88
2022-12-06T04:28:12.126Z,4.87
2022-12-06T04:31:10.208Z,4.85
2022-12-06T04:34:22.121Z,4.84
2022-12-06T04:37:34.136Z,4.87
2022-12-06T04:40:21.139Z,4.90
2022-12-06T04:43:12.957Z,4.88
2022-12-06T04:46:00.138Z,4.93
2022-12-06T04:48:33.231Z,4.93
2022-12-06T04:51:20.156Z,4.95
2022-12-06T04:53:53.226Z,4.97
2022-12-06T04:56:40.154Z,4.97
2022-12-06T04:59:20.124Z,4.98
2022-12-06T05:02:07.158Z,4.99
2022-12-06T05:04:47.141Z,4.99
2022-12-06T05:07:34.188Z,4.99
2022-12-06T05:10:14.150Z,5.00
2022-12-06T05:13:01.155Z,5.00
2022-12-06T05:15:35.251Z,4.99
2022-12-06T05:18:22.143Z,4.98
2022-12-06T05:20:56.246Z,4.97
2022-12-06T05:23:50.142Z,4.95
2022-12-06T05:26:44.155Z,4.93
2022-12-06T05:29:38.153Z,4.91
2022-12-06T05:32:32.136Z,4.91
2022-12-06T05:35:26.154Z,4.89
2022-12-06T05:38:20.159Z,4.85
2022-12-06T05:41:07.174Z,4.82
2022-12-06T05:43:41.306Z,4.82
2022-12-06T05:46:28.184Z,4.80
2022-12-06T05:49:01.305Z,4.78
2022-12-06T05:51:48.135Z,4.77
2022-12-06T05:54:21.258Z,4.74
2022-12-06T05:57:08.162Z,4.74
2022-12-06T05:59:41.316Z,4.75
2022-12-06T06:02:28.252Z,4.73
2022-12-06T06:05:01.262Z,4.75
2022-12-06T06:07:48.225Z,4.71
2022-12-06T06:10:21.357Z,4.71
2022-12-06T06:13:08.171Z,4.69
2022-12-06T06:15:41.272Z,4.67
2022-12-06T06:18:28.169Z,4.66
2022-12-06T06:21:05.252Z,4.64
2022-12-06T06:23:59.186Z,4.65
2022-12-06T06:26:46.177Z,4.66
2022-12-06T06:29:19.261Z,4.63
2022-12-06T06:32:06.248Z,4.64
2022-12-06T06:34:46.182Z,4.64
2022-12-06T06:37:33.163Z,4.62
2022-12-06T06:40:07.313Z,4.65
2022-12-06T06:42:54.182Z,4.66
2022-12-06T06:45:35.212Z,4.68
2022-12-06T06:48:29.177Z,4.69
2022-12-06T06:51:19.173Z,4.70
2022-12-06T06:53:59.179Z,4.73
2022-12-06T06:56:53.191Z,4.76
2022-12-06T06:59:40.192Z,4.79
2022-12-06T07:02:20.214Z,4.81
2022-12-06T07:05:14.212Z,4.81
2022-12-06T07:08:01.218Z,4.84
2022-12-06T07:10:34.282Z,4.87
2022-12-06T07:13:22.191Z,4.90
2022-12-06T07:16:03.182Z,4.94
2022-12-06T07:18:57.196Z,4.96
2022-12-06T07:21:44.184Z,4.98
2022-12-06T07:24:17.305Z,4.98
2022-12-06T07:27:04.191Z,4.99
2022-12-06T07:29:37.360Z,5.00
2022-12-06T07:32:24.217Z,5.00
2022-12-06T07:34:57.304Z,5.00
2022-12-06T07:37:44.231Z,5.01
2022-12-06T07:40:48.245Z,5.00
2022-12-06T07:43:59.207Z,5.00
2022-12-06T07:46:46.219Z,5.00
2022-12-06T07:49:20.359Z,5.00
2022-12-06T07:52:07.199Z,5.02
2022-12-06T07:54:43.293Z,5.03
2022-12-06T07:57:30.222Z,5.02
2022-12-06T08:00:03.508Z,5.03
2022-12-06T08:02:50.198Z,5.05
2022-12-06T08:05:23.355Z,5.07
2022-12-06T08:08:10.280Z,5.08
2022-12-06T08:10:50.225Z,5.11
2022-12-06T08:13:37.237Z,5.12
2022-12-06T08:16:22.328Z,5.13
2022-12-06T08:19:10.217Z,5.15
2022-12-06T08:21:50.216Z,5.15
2022-12-06T08:24:44.225Z,5.14
2022-12-06T08:27:31.213Z,5.17
2022-12-06T08:30:04.390Z,5.17
2022-12-06T08:32:51.222Z,5.17
2022-12-06T08:35:31.205Z,5.16
2022-12-06T08:38:18.241Z,5.14
2022-12-06T08:40:58.222Z,5.17
2022-12-06T08:43:52.259Z,5.15
2022-12-06T08:46:41.258Z,5.15
2022-12-06T08:49:15.400Z,5.14
2022-12-06T08:52:02.239Z,5.12
2022-12-06T08:54:43.217Z,5.11
2022-12-06T08:57:37.234Z,5.11
2022-12-06T09:00:31.233Z,5.11
2022-12-06T09:03:18.242Z,5.10
2022-12-06T09:05:58.239Z,5.09
2022-12-06T09:08:53.243Z,5.11
2022-12-06T09:11:40.252Z,5.11
2022-12-06T09:14:22.473Z,5.12
2022-12-06T09:17:16.245Z,5.11
2022-12-06T09:20:06.128Z,5.13
2022-12-06T09:22:40.349Z,5.13
2022-12-06T09:25:27.245Z,5.13
2022-12-06T09:28:00.349Z,5.13
2022-12-06T09:30:47.296Z,5.14
2022-12-06T09:33:20.503Z,5.13
2022-12-06T09:36:12.264Z,5.13
2022-12-06T09:38:56.239Z,5.14
2022-12-06T09:42:01.291Z,5.14
2022-12-06T09:44:58.332Z,5.12
2022-12-06T09:47:57.266Z,5.09
2022-12-06T09:50:42.267Z,5.08
2022-12-06T09:53:36.244Z,5.07
2022-12-06T09:56:41.260Z,5.08
2022-12-06T09:59:36.345Z,5.10
2022-12-06T10:02:34.389Z,5.10
2022-12-06T10:05:45.922Z,5.10
2022-12-06T10:08:34.424Z,5.10
2022-12-06T10:11:39.253Z,5.09
2022-12-06T10:14:51.281Z,5.13
2022-12-06T10:17:52.699Z,5.13
2022-12-06T10:20:31.371Z,5.14
2022-12-06T10:23:49.269Z,5.16
2022-12-06T10:26:24.350Z,5.18
2022-12-06T10:29:29.048Z,5.19
2022-12-06T10:32:13.253Z,5.21
2022-12-06T10:35:30.278Z,5.22
2022-12-06T10:38:29.270Z,5.23
2022-12-06T10:41:23.472Z,5.24
2022-12-06T10:44:32.300Z,5.25
2022-12-06T10:47:13.466Z,5.26
2022-12-06T10:50:15.272Z,5.26
2022-12-06T10:53:02.237Z,5.25
2022-12-06T10:56:10.264Z,5.25
2022-12-06T10:59:11.288Z,5.25
2022-12-06T11:02:06.338Z,5.24
2022-12-06T11:04:55.279Z,5.25
2022-12-06T11:07:32.449Z,5.25
2022-12-06T11:10:28.293Z,5.24
2022-12-06T11:13:20.383Z,5.23
2022-12-06T11:16:31.419Z,5.21
2022-12-06T11:19:20.634Z,5.20
2022-12-06T11:22:30.360Z,5.19
2022-12-06T11:25:12.415Z,5.17
2022-12-06T11:28:27.312Z,5.17
2022-12-06T11:31:10.335Z,5.17
2022-12-06T11:34:04.316Z,5.17
2022-12-06T11:36:59.620Z,5.14
2022-12-06T11:39:33.401Z,5.12
2022-12-06T11:42:25.284Z,5.12
2022-12-06T11:45:11.319Z,5.12
2022-12-06T11:48:11.291Z,5.11
2022-12-06T11:51:00.303Z,5.11
2022-12-06T11:53:50.307Z,5.08
2022-12-06T11:56:52.284Z,5.07
2022-12-06T11:59:46.318Z,5.04
2022-12-06T12:02:39.388Z,5.03
2022-12-06T12:05:45.337Z,5.02
2022-12-06T12:08:34.359Z,5.01
2022-12-06T12:11:11.408Z,4.97
2022-12-06T12:14:21.320Z,4.96
2022-12-06T12:16:56.479Z,4.95
2022-12-06T12:19:53.326Z,4.91
2022-12-06T12:22:35.727Z,4.88
2022-12-06T12:25:49.606Z,4.86
2022-12-06T12:28:39.306Z,4.84
2022-12-06T12:31:30.444Z,4.81
2022-12-06T12:34:27.319Z,4.79
2022-12-06T12:37:11.329Z,4.78
2022-12-06T12:40:10.632Z,4.70
2022-12-06T12:43:13.307Z,4.66
2022-12-06T12:46:25.414Z,4.60
2022-12-06T12:49:32.305Z,4.54
2022-12-06T12:52:06.412Z,4.53
2022-12-06T12:55:08.313Z,4.49
2022-12-06T12:57:48.348Z,4.48
2022-12-06T13:00:39.313Z,4.48
2022-12-06T13:03:50.297Z,4.48
2022-12-06T13:06:36.363Z,4.47
2022-12-06T13:09:40.440Z,4.49
2022-12-06T13:12:49.356Z,4.51
2022-12-06T13:15:50.421Z,4.50
2022-12-06T13:18:40.339Z,4.50
2022-12-06T13:21:43.681Z,4.51
2022-12-06T13:24:43.355Z,4.55
2022-12-06T13:27:31.319Z,4.55
2022-12-06T13:30:23.522Z,4.54
2022-12-06T13:33:21.587Z,4.56
2022-12-06T13:36:07.449Z,4.56
2022-12-06T13:38:54.374Z,4.57
2022-12-06T13:42:12.359Z,4.59
2022-12-06T13:45:10.336Z,4.58
2022-12-06T13:47:58.329Z,4.57
2022-12-06T13:50:31.453Z,4.57
2022-12-06T13:53:18.331Z,4.59
2022-12-06T13:56:30.476Z,4.59
2022-12-06T13:59:21.344Z,4.60
2022-12-06T14:02:05.395Z,4.59
2022-12-06T14:04:52.359Z,4.59
2022-12-06T14:07:45.425Z,4.59
2022-12-06T14:10:32.371Z,4.59
2022-12-06T14:13:06.458Z,4.58
2022-12-06T14:15:59.361Z,4.58
2022-12-06T14:18:35.502Z,4.60
2022-12-06T14:21:50.582Z,4.58
2022-12-06T14:24:35.553Z,4.54
2022-12-06T14:27:28.378Z,4.52
2022-12-06T14:30:36.470Z,4.49
2022-12-06T14:33:34.344Z,4.47
2022-12-06T14:36:54.633Z,4.47
2022-12-06T14:39:48.351Z,4.46
2022-12-06T14:42:53.374Z,4.43
2022-12-06T14:45:26.447Z,4.41
2022-12-06T14:48:13.380Z,4.39
2022-12-06T14:50:48.465Z,4.37
2022-12-06T14:53:41.376Z,4.36
2022-12-06T14:56:36.472Z,4.36
2022-12-06T15:00:01.647Z,4.36
2022-12-06T15:02:34.538Z,4.36
2022-12-06T15:05:48.372Z,4.35
2022-12-06T15:08:41.390Z,4.34
2022-12-06T15:12:00.365Z,4.32
2022-12-06T15:14:59.397Z,4.30
2022-12-06T15:17:53.368Z,4.28
2022-12-06T15:20:47.393Z,4.27
2022-12-06T15:23:45.384Z,4.23
2022-12-06T15:26:39.394Z,4.22
2022-12-06T15:29:33.380Z,4.19
2022-12-06T15:32:25.365Z,4.19
2022-12-06T15:35:05.397Z,4.17
2022-12-06T15:37:52.389Z,4.15
2022-12-06T15:40:32.388Z,4.16
2022-12-06T15:43:36.385Z,4.18
2022-12-06T15:46:26.500Z,4.19
2022-12-06T15:49:07.393Z,4.23
2022-12-06T15:52:02.400Z,4.23
2022-12-06T15:54:49.397Z,4.21
2022-12-06T15:57:22.475Z,4.22
2022-12-06T16:00:09.398Z,4.17
2022-12-06T16:02:42.498Z,4.16
2022-12-06T16:05:29.414Z,4.12
2022-12-06T16:08:02.591Z,4.11
2022-12-06T16:11:11.288Z,4.12
2022-12-06T16:13:42.507Z,4.15
2022-12-06T16:16:29.430Z,4.17
2022-12-06T16:19:02.580Z,4.18
2022-12-06T16:22:01.417Z,4.17
2022-12-06T16:24:41.421Z,4.16
2022-12-06T16:27:35.395Z,4.16
2022-12-06T16:30:22.398Z,4.14
2022-12-06T16:32:55.514Z,4.12
2022-12-06T16:35:42.406Z,4.09
2022-12-06T16:38:31.483Z,4.09
2022-12-06T16:41:33.410Z,4.08
2022-12-06T16:44:20.425Z,4.08
2022-12-06T16:46:53.670Z,4.07
2022-12-06T16:49:49.158Z,4.06
2022-12-06T16:52:30.443Z,4.03
2022-12-06T16:55:24.400Z,4.01
2022-12-06T16:58:12.437Z,3.96
2022-12-06T17:00:45.620Z,3.91
2022-12-06T17:03:32.405Z,3.87
2022-12-06T17:06:12.505Z,3.84
2022-12-06T17:09:07.412Z,3.82
2022-12-06T17:12:10.380Z,3.79
2022-12-06T17:14:57.423Z,3.76
2022-12-06T17:17:30.580Z,3.72
2022-12-06T17:20:19.446Z,3.70
2022-12-06T17:22:52.509Z,3.68
2022-12-06T17:25:46.435Z,3.67
2022-12-06T17:28:40.431Z,3.67
2022-12-06T17:31:27.487Z,3.65
2022-12-06T17:34:00.571Z,3.65
2022-12-06T17:36:48.463Z,3.63
2022-12-06T17:39:24.558Z,3.57
2022-12-06T17:42:30.423Z,3.55
2022-12-06T17:45:10.443Z,3.51
2022-12-06T17:48:04.438Z,3.45
2022-12-06T17:50:51.459Z,3.43
2022-12-06T17:53:24.556Z,3.42
2022-12-06T17:56:36.453Z,3.42
2022-12-06T17:59:12.533Z,3.35
2022-12-06T18:02:17.044Z,3.30
2022-12-06T18:05:00.774Z,3.25
2022-12-06T18:07:54.496Z,3.21
2022-12-06T18:10:41.454Z,3.16
2022-12-06T18:13:14.530Z,3.14
2022-12-06T18:16:01.541Z,3.13
2022-12-06T18:18:41.429Z,3.14
2022-12-06T18:21:29.438Z,3.13
2022-12-06T18:24:29.219Z,3.12
2022-12-06T18:27:24.451Z,3.12
2022-12-06T18:30:12.464Z,3.07
2022-12-06T18:32:45.534Z,3.04
2022-12-06T18:35:32.462Z,3.04
2022-12-06T18:38:12.455Z,3.00
2022-12-06T18:40:59.446Z,2.99
2022-12-06T18:43:39.461Z,2.98
2022-12-06T18:46:28.500Z,2.99
2022-12-06T18:49:10.472Z,2.97
2022-12-06T18:52:04.455Z,2.98
2022-12-06T18:54:51.491Z,2.98
2022-12-06T18:57:30.489Z,3.00
2022-12-06T19:00:19.463Z,3.02
2022-12-06T19:02:52.705Z,3.03
2022-12-06T19:06:01.790Z,3.03
2022-12-06T19:08:32.731Z,3.08
2022-12-06T19:11:24.463Z,3.09
2022-12-06T19:13:57.875Z,3.03
2022-12-06T19:16:52.598Z,2.97
2022-12-06T19:19:37.450Z,2.93
2022-12-06T19:22:24.460Z,2.87
2022-12-06T19:24:57.585Z,2.80
2022-12-06T19:27:44.472Z,2.72
2022-12-06T19:30:18.583Z,2.67
2022-12-06T19:33:05.475Z,2.59
2022-12-06T19:35:38.586Z,2.55
2022-12-06T19:38:25.471Z,2.50
2022-12-06T19:40:59.586Z,2.48
2022-12-06T19:44:04.475Z,2.46
2022-12-06T19:46:37.651Z,2.37
2022-12-06T19:49:26.491Z,2.32
2022-12-06T19:51:59.674Z,2.29
2022-12-06T19:54:48.480Z,2.25
2022-12-06T19:57:28.471Z,2.21
2022-12-06T20:00:21.076Z,2.18
2022-12-06T20:03:02.593Z,2.17
2022-12-06T20:05:56.502Z,2.15
2022-12-06T20:08:44.496Z,2.13
2022-12-06T20:11:38.135Z,2.14
2022-12-06T20:14:25.481Z,2.11
2022-12-06T20:17:05.483Z,2.08
2022-12-06T20:19:59.772Z,2.07
2022-12-06T20:22:46.495Z,2.06
2022-12-06T20:25:19.576Z,2.05
2022-12-06T20:28:13.369Z,2.06
2022-12-06T20:30:48.314Z,2.04
2022-12-06T20:33:35.499Z,2.04
2022-12-06T20:36:15.525Z,2.01
2022-12-06T20:39:09.520Z,2.01
2022-12-06T20:41:57.516Z,1.99
2022-12-06T20:44:37.495Z,1.97
2022-12-06T20:47:24.525Z,1.94
2022-12-06T20:49:57.609Z,1.95
2022-12-06T20:52:44.508Z,1.95
2022-12-06T20:55:17.596Z,1.94
2022-12-06T20:58:04.511Z,1.94
2022-12-06T21:00:44.496Z,1.94
2022-12-06T21:03:40.497Z,1.93
2022-12-06T21:06:28.514Z,1.93
2022-12-06T21:09:04.649Z,1.92
2022-12-06T21:11:51.526Z,1.90
2022-12-06T21:14:24.621Z,1.91
2022-12-06T21:17:11.493Z,1.90
2022-12-06T21:19:44.633Z,1.91
2022-12-06T21:22:31.526Z,1.93
2022-12-06T21:25:07.381Z,1.92
2022-12-06T21:27:54.514Z,1.91
2022-12-06T21:30:34.540Z,1.91
2022-12-06T21:33:28.520Z,1.94
2022-12-06T21:36:24.503Z,1.94
2022-12-06T21:39:11.525Z,1.94
2022-12-06T21:41:52.545Z,1.95
2022-12-06T21:44:39.585Z,1.95
2022-12-06T21:47:12.630Z,1.95
2022-12-06T21:49:59.876Z,1.95
2022-12-06T21:52:33.653Z,1.93
2022-12-06T21:55:20.527Z,1.92
2022-12-06T21:57:53.648Z,1.88
2022-12-06T22:00:40.534Z,1.85
2022-12-06T22:03:23.262Z,1.84
2022-12-06T22:06:21.524Z,1.85
2022-12-06T22:09:12.526Z,1.84
2022-12-06T22:11:46.638Z,1.82
2022-12-06T22:14:33.515Z,1.80
2022-12-06T22:17:06.646Z,1.80
2022-12-06T22:19:53.533Z,1.79
2022-12-06T22:22:33.535Z,1.79
2022-12-06T22:25:27.540Z,1.79
2022-12-06T22:28:21.533Z,1.78
2022-12-06T22:31:35.600Z,1.76
2022-12-06T22:34:09.623Z,1.74
2022-12-06T22:36:56.558Z,1.72
2022-12-06T22:39:36.557Z,1.69
2022-12-06T22:42:30.557Z,1.69
2022-12-06T22:45:17.541Z,1.65
2022-12-06T22:47:50.627Z,1.67
2022-12-06T22:50:37.540Z,1.69
2022-12-06T22:53:17.532Z,1.68
2022-12-06T22:56:13.577Z,1.66
2022-12-06T22:59:09.554Z,1.66
2022-12-06T23:02:03.606Z,1.66
2022-12-06T23:04:50.554Z,1.64
2022-12-06T23:07:30.543Z,1.65
2022-12-06T23:10:17.547Z,1.66
2022-12-06T23:12:50.652Z,1.62
2022-12-06T23:15:37.561Z,1.62
2022-12-06T23:18:17.559Z,1.64
2022-12-06T23:21:42.618Z,1.65
2022-12-06T23:24:36.558Z,1.66
2022-12-06T23:27:31.511Z,1.64
2022-12-06T23:30:25.566Z,1.65
2022-12-06T23:33:22.658Z,1.61
2022-12-06T23:36:16.575Z,1.62
2022-12-06T23:38:56.558Z,1.62
2022-12-06T23:41:50.575Z,1.60
2022-12-06T23:44:37.570Z,1.60
2022-12-06T23:47:10.665Z,1.61
2022-12-06T23:49:57.605Z,1.60
2022-12-06T23:52:30.624Z,1.59
2022-12-06T23:55:17.573Z,1.61
2022-12-06T23:57:57.573Z,1.59
